Time;durP1;ratioP1;P1;durP2;ratioP2;P2;SDS_P1;SDS_P2;PMS_P1;PMS_P2;Temp;Humidity;BMP_temperature;BMP_pressure;BME280_temperature;BME280_humidity;BME280_pressure;Samples;Min_cycle;Max_cycle;Signal;HPM_P1;HPM_P2
2021/11/11 00:01:06;;;;;;;40.03;27.23;;;;;;;2.40;100.00;100087.34;5112946;28;20229;-74
2021/11/11 00:03:33;;;;;;;37.35;27.23;;;;;;;2.39;100.00;100082.03;5113414;28;20194;-73
2021/11/11 00:05:59;;;;;;;40.08;26.90;;;;;;;2.27;100.00;100083.13;5113504;28;20186;-72
2021/11/11 00:08:26;;;;;;;41.88;28.30;;;;;;;2.21;100.00;100073.44;5113494;28;20556;-73
2021/11/11 00:10:54;;;;;;;42.45;28.02;;;;;;;2.26;100.00;100068.97;5113472;28;20651;-72
2021/11/11 00:13:21;;;;;;;39.95;26.33;;;;;;;2.32;100.00;100072.41;5108494;28;20543;-73
2021/11/11 00:15:48;;;;;;;37.60;27.50;;;;;;;2.46;100.00;100070.38;5113018;28;20336;-73
2021/11/11 00:18:15;;;;;;;39.47;27.00;;;;;;;2.65;100.00;100078.94;5112789;28;20198;-73
2021/11/11 00:20:42;;;;;;;37.20;26.90;;;;;;;2.49;100.00;100075.66;5113055;28;20191;-74
2021/11/11 00:23:09;;;;;;;37.63;26.50;;;;;;;2.42;100.00;100074.00;5113268;28;20215;-72
2021/11/11 00:25:37;;;;;;;37.92;26.80;;;;;;;2.40;100.00;100075.81;5112629;28;20201;-74
2021/11/11 00:28:06;;;;;;;36.70;25.35;;;;;;;2.20;100.00;100073.50;5113129;28;20241;-73
2021/11/11 00:30:33;;;;;;;36.05;25.35;;;;;;;2.22;100.00;100082.31;5113057;28;20199;-73
2021/11/11 00:32:59;;;;;;;47.35;26.13;;;;;;;2.14;100.00;100078.91;5112999;28;20656;-73
2021/11/11 00:35:28;;;;;;;39.10;26.15;;;;;;;2.14;100.00;100068.28;5112763;28;20187;-74
2021/11/11 00:37:57;;;;;;;38.70;27.10;;;;;;;2.12;100.00;100081.56;5113112;28;20225;-73
2021/11/11 00:40:24;;;;;;;37.67;25.52;;;;;;;2.10;100.00;100072.75;5113043;28;20195;-73
2021/11/11 00:42:51;;;;;;;35.97;25.58;;;;;;;2.07;100.00;100070.16;5112208;28;20606;-73
2021/11/11 00:45:20;;;;;;;42.22;28.67;;;;;;;2.19;100.00;100071.72;5112254;28;20192;-74
2021/11/11 00:47:48;;;;;;;42.80;28.33;;;;;;;1.99;100.00;100058.75;5112493;28;20251;-75
2021/11/11 00:50:18;;;;;;;40.35;27.58;;;;;;;1.99;100.00;100061.41;5113124;28;20274;-74
2021/11/11 00:52:45;;;;;;;42.63;27.15;;;;;;;2.04;100.00;100063.13;5112536;28;20290;-74
2021/11/11 00:55:11;;;;;;;46.47;31.35;;;;;;;2.11;100.00;100060.38;5112680;28;20208;-74
2021/11/11 00:57:38;;;;;;;42.28;28.25;;;;;;;2.20;100.00;100049.59;5112716;28;20195;-72
2021/11/11 01:00:08;;;;;;;34.55;25.67;;;;;;;2.26;100.00;100055.69;5105264;28;20536;-73
2021/11/11 01:02:37;;;;;;;31.02;22.90;;;;;;;2.26;100.00;100054.78;5112901;28;20308;-74
2021/11/11 01:05:04;;;;;;;46.10;24.35;;;;;;;2.14;100.00;100049.69;5105086;28;20222;-74
2021/11/11 01:07:31;;;;;;;31.85;22.20;;;;;;;2.04;100.00;100056.94;5112686;28;20593;-73
2021/11/11 01:09:58;;;;;;;37.47;24.52;;;;;;;1.92;100.00;100054.44;5112333;28;20218;-72
2021/11/11 01:12:24;;;;;;;35.90;22.08;;;;;;;1.92;100.00;100059.75;5112255;28;20195;-74
2021/11/11 01:14:51;;;;;;;35.92;24.42;;;;;;;1.83;100.00;100053.72;5112076;28;20232;-74
2021/11/11 01:17:18;;;;;;;35.30;25.23;;;;;;;1.93;100.00;100054.44;5112773;28;20586;-73
2021/11/11 01:19:46;;;;;;;37.35;26.75;;;;;;;1.82;100.00;100053.72;5112306;28;20654;-75
2021/11/11 01:22:13;;;;;;;37.45;25.70;;;;;;;1.77;100.00;100056.44;5112548;28;20251;-74
2021/11/11 01:24:39;;;;;;;38.45;24.70;;;;;;;1.86;100.00;100051.00;5112514;28;20206;-74
2021/11/11 01:27:06;;;;;;;34.53;25.05;;;;;;;2.01;100.00;100057.84;5112271;28;20194;-74
2021/11/11 01:29:33;;;;;;;36.10;24.52;;;;;;;2.25;100.00;100063.66;5112570;28;20206;-74
2021/11/11 01:31:59;;;;;;;36.35;25.27;;;;;;;2.39;100.00;100055.44;5112610;28;20185;-73
2021/11/11 01:34:27;;;;;;;40.70;26.52;;;;;;;2.38;97.84;100048.41;5112416;28;20297;-73
2021/11/11 01:36:55;;;;;;;40.80;23.92;;;;;;;2.00;100.00;100050.78;5111877;28;20187;-73
2021/11/11 01:39:23;;;;;;;40.70;26.08;;;;;;;1.71;100.00;100059.19;5111926;28;20193;-73
2021/11/11 01:41:50;;;;;;;39.83;26.70;;;;;;;1.65;100.00;100067.22;5112335;28;20725;-73
2021/11/11 01:44:18;;;;;;;34.63;24.15;;;;;;;1.90;100.00;100064.22;5112425;28;20183;-73
2021/11/11 01:46:44;;;;;;;37.67;25.25;;;;;;;1.77;100.00;100059.09;5112304;28;20198;-73
2021/11/11 01:49:13;;;;;;;38.15;25.95;;;;;;;1.85;100.00;100061.63;5112290;28;20191;-73
2021/11/11 01:51:40;;;;;;;38.67;25.17;;;;;;;1.70;100.00;100072.47;5112102;28;20186;-73
2021/11/11 01:54:09;;;;;;;33.08;23.80;;;;;;;1.86;100.00;100060.75;5112267;28;20595;-72
2021/11/11 01:56:36;;;;;;;38.80;23.60;;;;;;;2.18;100.00;100064.69;5115661;28;20285;-73
2021/11/11 01:59:03;;;;;;;33.30;23.65;;;;;;;2.01;100.00;100067.59;5115869;28;20190;-72
2021/11/11 02:01:30;;;;;;;38.55;25.02;;;;;;;1.98;100.00;100070.31;5115423;28;20279;-75
2021/11/11 02:03:56;;;;;;;37.20;24.60;;;;;;;1.96;100.00;100069.44;5115818;28;20213;-73
2021/11/11 02:06:23;;;;;;;34.40;24.00;;;;;;;1.91;100.00;100071.31;5115542;28;20192;-74
2021/11/11 02:08:50;;;;;;;34.95;24.23;;;;;;;1.93;100.00;100070.38;5115768;28;20194;-74
2021/11/11 02:11:18;;;;;;;39.28;24.15;;;;;;;2.04;100.00;100075.53;5115388;28;20188;-74
2021/11/11 02:13:45;;;;;;;38.78;23.45;;;;;;;2.00;100.00;100061.41;5108362;28;20195;-73
2021/11/11 02:16:11;;;;;;;32.03;24.35;;;;;;;1.77;100.00;100047.63;5115350;28;20310;-75
2021/11/11 02:18:38;;;;;;;36.20;25.92;;;;;;;1.52;100.00;100055.94;5115643;28;20186;-72
2021/11/11 02:21:06;;;;;;;31.95;22.95;;;;;;;1.46;100.00;100054.22;5115643;28;20572;-74
2021/11/11 02:23:35;;;;;;;32.60;22.45;;;;;;;1.66;100.00;100050.41;5115125;28;20222;-74
2021/11/11 02:26:03;;;;;;;38.45;22.60;;;;;;;1.66;100.00;100050.41;5115061;28;20269;-74
2021/11/11 02:28:29;;;;;;;35.78;25.27;;;;;;;1.48;100.00;100050.69;5114748;28;20283;-74
2021/11/11 02:30:56;;;;;;;36.47;25.08;;;;;;;1.66;100.00;100053.06;5115141;28;20205;-73
2021/11/11 02:33:25;;;;;;;38.67;23.95;;;;;;;1.58;100.00;100058.50;5115755;28;20198;-73
2021/11/11 02:35:52;;;;;;;42.67;24.90;;;;;;;1.48;100.00;100062.19;5115724;28;20196;-74
2021/11/11 02:38:21;;;;;;;40.10;23.52;;;;;;;1.75;100.00;100054.72;5115185;28;20609;-73
2021/11/11 02:40:49;;;;;;;33.55;22.15;;;;;;;1.84;100.00;100055.44;5115322;28;20643;-73
2021/11/11 02:43:17;;;;;;;34.40;23.08;;;;;;;1.87;100.00;100059.84;5115062;28;20210;-73
2021/11/11 02:45:47;;;;;;;34.80;22.98;;;;;;;1.94;100.00;100057.97;5115291;28;20221;-74
2021/11/11 02:48:16;;;;;;;36.67;24.10;;;;;;;1.62;100.00;100056.66;5114732;28;20221;-73
2021/11/11 02:50:44;;;;;;;38.10;23.80;;;;;;;1.55;100.00;100066.50;5114952;28;20197;-74
2021/11/11 02:53:10;;;;;;;38.80;22.55;;;;;;;1.47;100.00;100068.41;5114901;28;20198;-73
2021/11/11 02:55:39;;;;;;;32.35;22.98;;;;;;;1.36;100.00;100070.31;5114943;28;20193;-73
2021/11/11 02:58:06;;;;;;;38.40;23.63;;;;;;;1.24;100.00;100074.88;5114731;28;20634;-73
2021/11/11 03:00:40;;;;;;;36.25;23.45;;;;;;;1.41;100.00;100060.50;5114551;28;20205;-73
2021/11/11 03:03:07;;;;;;;34.92;21.67;;;;;;;1.45;100.00;100060.44;5114734;28;20209;-73
2021/11/11 03:05:35;;;;;;;34.33;23.15;;;;;;;1.23;100.00;100056.31;5114675;28;20657;-73
2021/11/11 03:08:01;;;;;;;31.50;22.02;;;;;;;1.21;100.00;100047.50;5114131;28;20189;-73
2021/11/11 03:10:30;;;;;;;40.03;23.00;;;;;;;1.48;100.00;100046.25;5114425;28;20199;-73
2021/11/11 03:13:00;;;;;;;33.83;22.45;;;;;;;1.76;100.00;100041.41;5114183;28;20184;-74
2021/11/11 03:15:28;;;;;;;39.15;24.25;;;;;;;1.72;100.00;100044.13;5114615;28;20260;-73
2021/11/11 03:17:56;;;;;;;33.20;21.27;;;;;;;1.71;100.00;100042.38;5114603;28;20188;-74
2021/11/11 03:20:22;;;;;;;40.45;22.73;;;;;;;1.56;100.00;100052.34;5114516;28;20213;-73
2021/11/11 03:22:49;;;;;;;37.65;23.20;;;;;;;1.11;100.00;100056.44;5114439;28;20231;-73
2021/11/11 03:25:20;;;;;;;38.90;23.02;;;;;;;1.09;100.00;100058.28;5114224;28;20204;-74
2021/11/11 03:27:48;;;;;;;38.40;22.10;;;;;;;1.20;100.00;100051.06;5114369;28;20207;-74
2021/11/11 03:30:18;;;;;;;39.97;23.63;;;;;;;1.40;100.00;100053.44;5114079;28;20327;-74
2021/11/11 03:32:46;;;;;;;34.70;24.30;;;;;;;1.39;100.00;100043.72;5114543;28;20294;-74
2021/11/11 03:35:13;;;;;;;33.22;21.25;;;;;;;1.46;100.00;100048.91;5114079;28;20638;-72
2021/11/11 03:37:41;;;;;;;33.00;19.73;;;;;;;1.54;100.00;100032.91;5114381;28;20683;-73
2021/11/11 03:40:10;;;;;;;32.20;20.23;;;;;;;1.86;100.00;100035.06;5113915;28;20200;-74
2021/11/11 03:42:37;;;;;;;28.98;17.92;;;;;;;2.04;100.00;100046.31;5114013;28;20293;-74
2021/11/11 03:45:05;;;;;;;27.00;18.30;;;;;;;2.15;100.00;100051.41;5113920;28;20203;-74
2021/11/11 03:47:33;;;;;;;25.08;19.13;;;;;;;2.18;100.00;100054.03;5114018;28;20205;-74
2021/11/11 03:50:00;;;;;;;32.53;19.67;;;;;;;2.23;100.00;100054.84;5113365;28;20215;-74
2021/11/11 03:52:26;;;;;;;24.05;17.27;;;;;;;2.35;100.00;100059.94;5113985;28;20186;-74
2021/11/11 03:54:53;;;;;;;31.55;18.90;;;;;;;2.21;100.00;100054.84;5113170;28;20199;-72
2021/11/11 03:57:20;;;;;;;33.38;18.95;;;;;;;2.21;100.00;100056.63;5113974;28;20262;-74
2021/11/11 03:59:47;;;;;;;31.35;19.92;;;;;;;2.15;100.00;100056.72;5110705;28;20610;-74
2021/11/11 04:02:14;;;;;;;31.50;16.80;;;;;;;2.13;100.00;100059.44;5113851;28;20269;-74
2021/11/11 04:04:42;;;;;;;29.58;18.63;;;;;;;1.79;100.00;100052.00;5113769;28;20246;-72
2021/11/11 04:07:09;;;;;;;32.58;19.60;;;;;;;1.85;100.00;100053.66;5113479;28;20187;-75
2021/11/11 04:09:36;;;;;;;30.50;18.70;;;;;;;1.96;100.00;100058.81;5113814;28;20285;-74
2021/11/11 04:12:03;;;;;;;26.80;16.80;;;;;;;2.12;100.00;100057.66;5113093;28;20193;-73
2021/11/11 04:14:31;;;;;;;29.67;18.55;;;;;;;2.08;100.00;100058.59;5113282;28;20228;-73
2021/11/11 04:16:58;;;;;;;28.10;18.08;;;;;;;2.25;100.00;100051.25;5112805;28;20240;-73
2021/11/11 04:19:24;;;;;;;28.20;17.17;;;;;;;2.36;100.00;100059.03;5113255;28;20304;-73
2021/11/11 04:21:52;;;;;;;26.13;17.80;;;;;;;2.53;100.00;100066.72;5112835;28;20197;-73
2021/11/11 04:24:19;;;;;;;26.67;17.83;;;;;;;2.59;100.00;100071.91;5112982;28;20198;-73
2021/11/11 04:26:52;;;;;;;26.48;17.27;;;;;;;2.74;100.00;100064.56;5112744;28;20637;-73
2021/11/11 04:29:21;;;;;;;24.08;17.42;;;;;;;2.67;100.00;100070.00;5113192;28;20187;-73
2021/11/11 04:31:52;;;;;;;25.70;16.00;;;;;;;2.78;100.00;100067.16;5112931;28;20277;-73
2021/11/11 04:34:20;;;;;;;27.67;18.00;;;;;;;2.78;100.00;100064.50;5113359;28;20760;-72
2021/11/11 04:40:08;;;;;;;26.65;16.50;;;;;;;2.92;100.00;100066.91;5110361;28;20225;-73
2021/11/11 04:45:45;;;;;;;31.23;16.77;;;;;;;2.81;100.00;100074.19;5079046;28;20195;-72
2021/11/11 04:51:31;;;;;;;24.60;15.77;;;;;;;2.86;100.00;100081.19;5105002;28;20727;-74
2021/11/11 05:02:36;;;;;;;27.50;17.13;;;;;;;3.32;97.70;100079.38;5110459;28;20236;-74
2021/11/11 05:05:03;;;;;;;28.35;18.08;;;;;;;3.21;96.92;100079.63;5105959;28;20184;-74
2021/11/11 05:07:30;;;;;;;32.33;18.50;;;;;;;3.12;97.57;100082.44;5112297;28;20206;-74
2021/11/11 05:09:56;;;;;;;28.40;18.85;;;;;;;3.01;97.41;100087.09;5112745;28;20604;-74
2021/11/11 05:12:24;;;;;;;34.22;19.63;;;;;;;2.95;97.95;100090.75;5112748;28;20618;-74
2021/11/11 05:14:51;;;;;;;31.80;19.08;;;;;;;3.06;97.70;100085.25;5112472;28;20704;-75
2021/11/11 05:17:22;;;;;;;39.85;20.30;;;;;;;3.06;97.37;100083.44;5112778;28;20245;-74
2021/11/11 05:19:49;;;;;;;31.23;20.30;;;;;;;2.96;98.04;100081.88;5112888;28;20193;-74
2021/11/11 05:22:16;;;;;;;38.20;20.80;;;;;;;3.20;97.81;100084.97;5112660;28;20630;-73
2021/11/11 05:24:43;;;;;;;28.80;18.20;;;;;;;2.90;98.13;100088.19;5112703;28;20758;-73
2021/11/11 05:27:11;;;;;;;34.95;18.92;;;;;;;3.02;98.39;100081.75;5112375;28;20640;-74
2021/11/11 05:29:39;;;;;;;29.00;18.00;;;;;;;3.05;98.23;100076.41;5113722;28;20593;-74
2021/11/11 05:32:07;;;;;;;34.88;17.60;;;;;;;2.32;100.00;100085.69;5115795;28;20266;-73
2021/11/11 05:34:33;;;;;;;44.28;15.73;;;;;;;2.07;100.00;100094.06;5115733;28;20192;-74
2021/11/11 05:37:00;;;;;;;32.90;15.00;;;;;;;2.18;100.00;100105.41;5115844;28;20592;-73
2021/11/11 05:39:26;;;;;;;28.80;17.13;;;;;;;2.21;100.00;100112.44;5115543;28;20291;-74
2021/11/11 05:41:53;;;;;;;41.08;15.25;;;;;;;2.25;100.00;100117.69;5115880;28;20202;-73
2021/11/11 05:44:20;;;;;;;24.98;15.10;;;;;;;2.43;100.00;100112.97;5114035;28;20509;-73
2021/11/11 05:46:48;;;;;;;24.52;16.50;;;;;;;2.39;100.00;100114.78;5108645;28;20245;-73
2021/11/11 05:49:14;;;;;;;30.67;17.42;;;;;;;2.30;100.00;100109.63;5113423;28;20301;-72
2021/11/11 05:51:41;;;;;;;26.15;17.73;;;;;;;2.60;100.00;100116.25;5116021;28;20188;-73
2021/11/11 05:54:10;;;;;;;30.17;17.40;;;;;;;2.81;100.00;100114.09;5115674;28;20180;-73
2021/11/11 05:56:36;;;;;;;37.95;24.02;;;;;;;2.90;100.00;100121.91;5115455;28;20192;-73
2021/11/11 05:59:04;;;;;;;29.40;17.58;;;;;;;2.80;100.00;100104.34;5115750;28;20187;-72
2021/11/11 06:01:31;;;;;;;32.88;16.20;;;;;;;2.44;100.00;100115.63;5115229;28;20195;-73
2021/11/11 06:03:59;;;;;;;26.83;14.65;;;;;;;2.53;100.00;100114.56;5115525;28;20209;-73
2021/11/11 06:06:26;;;;;;;24.73;15.70;;;;;;;2.47;100.00;100117.34;5115407;28;20202;-73
2021/11/11 06:08:53;;;;;;;35.00;17.25;;;;;;;2.25;100.00;100109.72;5115456;28;20180;-73
2021/11/11 06:11:19;;;;;;;34.25;16.05;;;;;;;2.53;100.00;100111.03;5114897;28;20278;-73
2021/11/11 06:13:46;;;;;;;31.83;17.02;;;;;;;2.53;100.00;100108.38;5115680;28;20595;-74
2021/11/11 06:16:13;;;;;;;26.35;16.90;;;;;;;2.57;100.00;100108.28;5114935;28;20225;-72
2021/11/11 06:18:40;;;;;;;24.90;16.70;;;;;;;2.63;100.00;100110.84;5115202;28;20277;-73
2021/11/11 06:21:08;;;;;;;30.60;17.58;;;;;;;2.92;100.00;100115.66;5114829;28;20186;-73
2021/11/11 06:23:36;;;;;;;27.33;17.48;;;;;;;2.97;100.00;100120.88;5114328;28;20223;-73
2021/11/11 06:26:03;;;;;;;22.67;15.65;;;;;;;2.91;100.00;100126.31;5114769;28;20540;-74
2021/11/11 06:28:30;;;;;;;27.95;17.75;;;;;;;2.72;100.00;100123.97;5114090;28;20184;-75
2021/11/11 06:30:57;;;;;;;26.25;16.35;;;;;;;2.67;100.00;100133.84;5114705;28;20605;-74
2021/11/11 06:33:24;;;;;;;28.73;16.63;;;;;;;2.61;100.00;100141.03;5114078;28;20346;-74
2021/11/11 06:35:51;;;;;;;23.88;16.15;;;;;;;2.72;100.00;100129.31;5114080;28;20195;-73
2021/11/11 06:38:19;;;;;;;27.35;14.85;;;;;;;2.73;100.00;100132.81;5114341;28;20638;-73
2021/11/11 06:40:45;;;;;;;22.38;14.93;;;;;;;2.69;100.00;100134.69;5112418;28;20198;-74
2021/11/11 06:43:12;;;;;;;27.38;16.95;;;;;;;2.85;100.00;100132.63;5113310;28;20550;-73
2021/11/11 06:45:42;;;;;;;29.45;15.35;;;;;;;2.98;98.57;100138.59;5113585;28;20244;-74
2021/11/11 06:48:09;;;;;;;27.52;16.63;;;;;;;2.88;98.07;100143.19;5114075;28;20202;-75
2021/11/11 06:50:36;;;;;;;26.02;16.23;;;;;;;2.89;99.62;100147.63;5113833;28;20201;-73
2021/11/11 06:53:03;;;;;;;30.15;17.70;;;;;;;2.43;100.00;100150.19;5113768;28;20202;-72
2021/11/11 06:55:31;;;;;;;28.05;17.27;;;;;;;2.41;100.00;100147.53;5114348;28;20275;-75
2021/11/11 06:57:58;;;;;;;27.63;15.60;;;;;;;2.62;100.00;100148.09;5114052;28;20195;-74
2021/11/11 07:00:25;;;;;;;45.45;27.27;;;;;;;2.52;100.00;100150.03;5114250;28;20729;-73
2021/11/11 07:02:52;;;;;;;32.42;16.85;;;;;;;2.23;100.00;100155.81;5114088;28;20267;-72
2021/11/11 07:05:18;;;;;;;28.13;16.13;;;;;;;2.18;100.00;100160.31;5114171;28;20214;-74
2021/11/11 07:07:45;;;;;;;24.98;14.45;;;;;;;2.24;100.00;100160.25;5113463;28;20574;-74
2021/11/11 07:10:12;;;;;;;32.10;16.20;;;;;;;2.36;100.00;100152.06;5113746;28;20213;-74
2021/11/11 07:12:40;;;;;;;47.90;15.75;;;;;;;2.44;100.00;100150.16;5114317;28;20203;-74
2021/11/11 07:15:09;;;;;;;23.55;14.77;;;;;;;2.47;100.00;100155.44;5113470;28;20223;-72
2021/11/11 07:17:37;;;;;;;21.50;14.90;;;;;;;2.70;100.00;100154.16;5113910;28;20281;-73
2021/11/11 07:20:05;;;;;;;26.33;16.25;;;;;;;2.85;99.98;100160.97;5113387;28;20202;-73
2021/11/11 07:22:32;;;;;;;23.45;14.93;;;;;;;3.13;99.03;100166.69;5113303;28;20196;-74
2021/11/11 07:24:59;;;;;;;26.92;16.60;;;;;;;3.33;97.23;100159.22;5113352;28;20219;-74
2021/11/11 07:27:25;;;;;;;27.27;16.50;;;;;;;3.26;96.86;100154.06;5113730;28;20208;-72
2021/11/11 07:29:53;;;;;;;26.40;16.23;;;;;;;3.04;97.12;100161.56;5113430;28;20198;-73
2021/11/11 07:32:20;;;;;;;26.95;15.20;;;;;;;2.76;98.77;100161.16;5113581;28;20678;-74
2021/11/11 07:34:46;;;;;;;29.08;16.05;;;;;;;2.76;99.21;100161.16;5113316;28;20192;-73
2021/11/11 07:37:13;;;;;;;26.45;16.25;;;;;;;2.68;100.00;100167.47;5113602;28;20197;-72
2021/11/11 07:39:40;;;;;;;28.55;15.63;;;;;;;2.51;100.00;100164.25;5112913;28;20199;-74
2021/11/11 07:42:07;;;;;;;24.70;16.83;;;;;;;2.66;100.00;100169.28;5113595;28;20633;-73
2021/11/11 07:44:33;;;;;;;30.40;18.15;;;;;;;2.71;100.00;100171.88;5113385;28;20736;-74
2021/11/11 07:47:01;;;;;;;29.48;16.38;;;;;;;2.67;100.00;100180.81;5112992;28;20194;-73
2021/11/11 07:49:28;;;;;;;25.25;15.85;;;;;;;2.89;100.00;100179.56;5113195;28;20227;-74
2021/11/11 07:51:55;;;;;;;26.92;15.77;;;;;;;3.03;99.65;100174.00;5112973;28;20201;-73
2021/11/11 07:54:21;;;;;;;34.00;15.77;;;;;;;2.84;99.10;100172.53;5113110;28;20180;-74
2021/11/11 07:56:48;;;;;;;27.35;17.10;;;;;;;2.73;100.00;100180.69;5113284;28;20552;-74
2021/11/11 07:59:15;;;;;;;24.05;17.20;;;;;;;2.68;100.00;100175.47;5112896;28;20740;-73
2021/11/11 08:01:41;;;;;;;31.77;15.43;;;;;;;2.64;100.00;100175.53;5112940;28;20187;-73
2021/11/11 08:04:09;;;;;;;30.92;17.60;;;;;;;2.50;100.00;100170.44;5112854;28;20257;-73
2021/11/11 08:06:36;;;;;;;30.67;16.27;;;;;;;2.68;100.00;100179.91;5111915;28;20711;-74
2021/11/11 08:09:03;;;;;;;24.05;14.23;;;;;;;2.95;99.46;100181.22;5112941;28;20619;-74
2021/11/11 08:11:30;;;;;;;25.63;16.17;;;;;;;3.09;96.10;100191.59;5112671;28;20678;-72
2021/11/11 08:13:56;;;;;;;21.27;14.80;;;;;;;2.92;95.63;100191.91;5112258;28;20194;-74
2021/11/11 08:16:23;;;;;;;19.02;13.48;;;;;;;2.96;94.92;100195.38;5112848;28;20282;-73
2021/11/11 08:18:50;;;;;;;25.33;15.70;;;;;;;2.91;96.16;100187.50;5113078;28;20220;-74
2021/11/11 08:21:18;;;;;;;23.00;14.77;;;;;;;2.74;96.70;100200.19;5113305;28;20206;-75
2021/11/11 08:23:46;;;;;;;24.77;15.65;;;;;;;2.89;97.53;100203.50;5112690;28;20549;-72
2021/11/11 08:26:12;;;;;;;28.30;15.43;;;;;;;3.05;95.43;100206.75;5111988;28;20302;-74
2021/11/11 08:28:39;;;;;;;29.63;17.10;;;;;;;3.27;93.57;100207.22;5113369;28;20335;-75
2021/11/11 08:31:06;;;;;;;25.52;16.15;;;;;;;2.98;97.01;100212.19;5112761;28;20541;-74
2021/11/11 08:33:32;;;;;;;25.73;16.60;;;;;;;3.16;97.11;100211.88;5112447;28;20186;-74
2021/11/11 08:35:59;;;;;;;25.00;16.45;;;;;;;3.36;95.57;100214.16;5112772;28;20226;-74
2021/11/11 08:38:29;;;;;;;32.67;19.65;;;;;;;3.43;96.17;100207.81;5112332;28;20232;-72
2021/11/11 08:40:57;;;;;;;28.00;19.40;;;;;;;3.72;94.30;100217.03;5112514;28;20201;-74
2021/11/11 08:43:24;;;;;;;29.83;18.15;;;;;;;4.06;92.52;100219.84;5112809;28;20630;-74
2021/11/11 08:45:51;;;;;;;30.50;19.40;;;;;;;3.95;91.55;100224.53;5112211;28;20692;-74
2021/11/11 08:48:20;;;;;;;42.30;20.00;;;;;;;3.65;93.27;100226.94;5112425;28;20221;-74
2021/11/11 08:50:47;;;;;;;32.55;19.25;;;;;;;3.57;95.71;100220.84;5112912;28;20270;-74
2021/11/11 08:53:14;;;;;;;33.00;21.50;;;;;;;3.83;93.71;100224.81;5112639;28;20223;-75
2021/11/11 08:55:43;;;;;;;29.35;18.30;;;;;;;4.04;93.39;100229.66;5112587;28;20176;-74
2021/11/11 08:58:12;;;;;;;37.25;22.23;;;;;;;4.16;91.87;100224.09;5112380;28;20252;-74
2021/11/11 09:00:41;;;;;;;32.15;21.27;;;;;;;4.38;91.00;100240.47;5112420;28;20275;-73
2021/11/11 09:03:08;;;;;;;34.63;21.20;;;;;;;4.38;90.88;100237.81;5112993;28;20311;-75
2021/11/11 09:05:36;;;;;;;33.53;20.48;;;;;;;4.62;91.11;100243.50;5115001;28;20954;-74
2021/11/11 09:08:04;;;;;;;31.70;20.65;;;;;;;4.66;89.67;100244.28;5117018;28;20180;-74
2021/11/11 09:10:31;;;;;;;40.35;23.90;;;;;;;4.78;88.74;100228.88;5117245;28;20200;-75
2021/11/11 09:12:59;;;;;;;38.42;23.88;;;;;;;4.88;88.59;100237.53;5116963;28;20179;-74
2021/11/11 09:15:29;;;;;;;35.33;20.48;;;;;;;5.08;87.90;100230.81;5115970;28;20231;-74
2021/11/11 09:17:57;;;;;;;32.00;21.23;;;;;;;5.03;86.71;100236.28;5116351;28;20206;-74
2021/11/11 09:20:25;;;;;;;35.08;20.05;;;;;;;5.01;87.29;100230.09;5115921;28;20195;-73
2021/11/11 09:22:53;;;;;;;43.38;21.73;;;;;;;4.87;87.96;100224.25;5115813;28;20188;-74
2021/11/11 09:25:19;;;;;;;40.70;22.52;;;;;;;4.86;86.79;100230.47;5116209;28;20222;-73
2021/11/11 09:27:47;;;;;;;41.10;21.55;;;;;;;4.87;87.14;100224.25;5116362;28;20188;-74
2021/11/11 09:30:18;;;;;;;37.50;21.30;;;;;;;4.68;85.93;100229.13;5115353;28;20189;-75
2021/11/11 09:32:45;;;;;;;39.17;21.65;;;;;;;4.27;88.40;100231.84;5115523;28;20207;-74
2021/11/11 09:35:13;;;;;;;36.22;23.45;;;;;;;4.38;88.64;100234.25;5116608;28;20610;-74
2021/11/11 09:37:40;;;;;;;37.95;23.65;;;;;;;4.36;88.76;100234.31;5115572;28;20283;-72
2021/11/11 09:40:11;;;;;;;43.72;24.40;;;;;;;4.51;88.02;100241.06;5116038;28;20196;-74
2021/11/11 09:42:38;;;;;;;45.60;24.90;;;;;;;4.64;88.06;100241.69;5116035;28;20179;-74
2021/11/11 09:45:06;;;;;;;44.88;26.65;;;;;;;4.44;88.41;100238.59;5115978;28;20222;-74
2021/11/11 09:47:35;;;;;;;40.13;25.08;;;;;;;4.44;88.33;100243.94;5115852;28;20188;-72
2021/11/11 09:50:02;;;;;;;45.97;24.30;;;;;;;4.71;86.87;100232.63;5116114;28;20188;-73
2021/11/11 09:52:29;;;;;;;48.33;28.92;;;;;;;4.43;89.49;100232.38;5114987;28;20299;-72
2021/11/11 10:00:25;;;;;;;46.75;26.27;;;;;;;4.60;89.08;100229.31;5114944;28;20244;-75
2021/11/11 10:02:53;;;;;;;41.55;26.58;;;;;;;4.58;89.14;100233.81;5115354;28;20188;-74
2021/11/11 10:05:20;;;;;;;46.47;27.33;;;;;;;4.76;88.93;100230.69;5115268;28;20204;-74
2021/11/11 10:07:47;;;;;;;47.90;27.83;;;;;;;4.85;87.70;100224.25;5115579;28;20288;-75
2021/11/11 10:10:30;;;;;;;48.58;31.05;;;;;;;4.99;87.35;100223.91;5115404;28;20191;-74
2021/11/11 10:13:10;;;;;;;48.55;27.80;;;;;;;5.28;86.07;100223.16;5115101;28;20279;-74
2021/11/11 10:15:58;;;;;;;49.80;30.60;;;;;;;5.26;84.83;100227.66;5114963;28;20274;-73
2021/11/11 10:18:48;;;;;;;47.80;29.80;;;;;;;5.20;84.97;100217.13;5114930;28;20194;-74
2021/11/11 10:21:40;;;;;;;47.47;29.52;;;;;;;5.01;85.43;100214.09;5115456;28;20216;-73
2021/11/11 10:24:23;;;;;;;49.40;31.02;;;;;;;5.28;85.56;100200.94;5111309;28;20606;-75
2021/11/11 10:26:57;;;;;;;47.17;29.45;;;;;;;5.40;84.50;100200.59;5114722;28;20200;-74
2021/11/11 10:29:30;;;;;;;48.40;30.73;;;;;;;5.75;82.31;100201.41;5115050;28;20191;-73
2021/11/11 10:32:00;;;;;;;49.80;33.35;;;;;;;5.84;81.87;100204.69;5114484;28;20188;-72
2021/11/11 10:34:28;;;;;;;45.70;29.55;;;;;;;5.70;81.81;100200.66;5115201;28;20211;-74
2021/11/11 10:36:55;;;;;;;46.88;30.83;;;;;;;5.79;82.77;100205.75;5114926;28;20214;-73
2021/11/11 10:39:25;;;;;;;51.38;30.35;;;;;;;5.59;82.75;100199.19;5114686;28;20192;-74
2021/11/11 10:41:52;;;;;;;53.78;35.00;;;;;;;5.85;82.44;100197.53;5114548;28;20214;-73
2021/11/11 10:44:28;;;;;;;52.92;34.08;;;;;;;5.67;83.50;100209.63;5114410;28;20587;-73
2021/11/11 10:46:57;;;;;;;49.53;29.92;;;;;;;5.92;82.31;100214.28;5114474;28;20188;-74
2021/11/11 10:49:30;;;;;;;56.08;31.10;;;;;;;6.08;81.77;100212.06;5114079;28;20184;-74
2021/11/11 10:52:20;;;;;;;46.75;30.05;;;;;;;6.18;81.33;100210.88;5114610;28;20196;-72
2021/11/11 10:55:04;;;;;;;49.45;31.27;;;;;;;6.32;80.97;100205.09;5114481;28;20517;-75
2021/11/11 10:57:36;;;;;;;53.08;32.97;;;;;;;6.21;80.20;100205.44;5112702;28;20635;-73
2021/11/11 11:00:08;;;;;;;47.20;31.17;;;;;;;6.26;81.16;100203.47;5114327;28;20210;-73
2021/11/11 11:02:49;;;;;;;50.17;31.55;;;;;;;6.48;79.60;100203.69;5114075;28;20194;-74
2021/11/11 11:05:18;;;;;;;51.17;31.23;;;;;;;6.43;79.65;100197.63;5114263;28;20749;-74
2021/11/11 11:07:46;;;;;;;50.72;30.83;;;;;;;6.59;79.44;100193.53;5114058;28;20180;-75
2021/11/11 11:10:17;;;;;;;48.53;30.27;;;;;;;6.54;79.41;100195.47;5113757;28;20215;-74
2021/11/11 11:12:44;;;;;;;44.83;29.05;;;;;;;6.49;79.13;100194.75;5113863;28;20180;-74
2021/11/11 11:15:12;;;;;;;45.30;30.20;;;;;;;6.22;80.67;100191.16;5113826;28;20326;-74
2021/11/11 11:17:54;;;;;;;49.22;30.13;;;;;;;6.38;80.75;100196.91;5113401;28;20280;-74
2021/11/11 11:20:27;;;;;;;44.10;29.17;;;;;;;6.63;80.26;100192.50;5113819;28;20188;-73
2021/11/11 11:23:10;;;;;;;50.55;29.83;;;;;;;6.41;80.57;100186.94;5113197;28;20186;-75
2021/11/11 11:25:36;;;;;;;53.33;31.35;;;;;;;6.42;81.08;100183.38;5113686;28;20211;-72
2021/11/11 11:28:40;;;;;;;52.00;30.70;;;;;;;6.29;81.45;100176.66;5112798;28;20290;-75
2021/11/11 11:31:08;;;;;;;50.35;31.88;;;;;;;6.17;82.73;100174.34;5113322;28;20510;-74
2021/11/11 11:33:45;;;;;;;56.78;34.80;;;;;;;6.14;83.03;100166.44;5113316;28;20274;-74
2021/11/11 11:36:17;;;;;;;53.72;31.25;;;;;;;6.08;83.77;100169.28;5113629;28;20263;-74
2021/11/11 11:38:55;;;;;;;53.50;30.77;;;;;;;6.23;82.78;100168.81;5113040;28;20202;-75
2021/11/11 11:41:31;;;;;;;52.63;31.02;;;;;;;6.30;83.17;100166.81;5113589;28;20205;-75